sensor_id;sensor_type;location;lat;lon;timestamp;P1;durP1;ratioP1;P2;durP2;ratioP2
77248;SDS011;66280;45.124;20.718;2024-02-21T00:02:38;18.47;;;9.57;;
77248;SDS011;66280;45.124;20.718;2024-02-21T00:12:40;16.73;;;8.90;;
77248;SDS011;66280;45.124;20.718;2024-02-21T00:22:41;17.40;;;8.87;;
77248;SDS011;66280;45.124;20.718;2024-02-21T00:32:43;13.87;;;6.93;;
77248;SDS011;66280;45.124;20.718;2024-02-21T00:42:44;14.37;;;7.20;;
77248;SDS011;66280;45.124;20.718;2024-02-21T00:52:45;15.10;;;6.83;;
77248;SDS011;66280;45.124;20.718;2024-02-21T01:02:47;13.98;;;7.22;;
77248;SDS011;66280;45.124;20.718;2024-02-21T01:12:48;12.80;;;7.23;;
77248;SDS011;66280;45.124;20.718;2024-02-21T01:22:50;12.30;;;7.43;;
77248;SDS011;66280;45.124;20.718;2024-02-21T01:32:51;18.50;;;8.50;;
77248;SDS011;66280;45.124;20.718;2024-02-21T01:42:54;19.10;;;8.43;;
77248;SDS011;66280;45.124;20.718;2024-02-21T01:52:56;17.52;;;8.38;;
77248;SDS011;66280;45.124;20.718;2024-02-21T02:02:58;14.90;;;8.30;;
77248;SDS011;66280;45.124;20.718;2024-02-21T02:12:59;14.27;;;8.13;;
77248;SDS011;66280;45.124;20.718;2024-02-21T02:23:11;15.70;;;8.03;;
77248;SDS011;66280;45.124;20.718;2024-02-21T02:33:14;16.03;;;8.10;;
77248;SDS011;66280;45.124;20.718;2024-02-21T02:43:16;15.95;;;7.97;;
77248;SDS011;66280;45.124;20.718;2024-02-21T02:53:17;20.17;;;9.67;;
77248;SDS011;66280;45.124;20.718;2024-02-21T03:03:19;21.10;;;9.47;;
77248;SDS011;66280;45.124;20.718;2024-02-21T03:13:20;15.33;;;8.37;;
77248;SDS011;66280;45.124;20.718;2024-02-21T03:23:22;21.27;;;8.47;;
77248;SDS011;66280;45.124;20.718;2024-02-21T03:33:23;13.70;;;7.47;;
77248;SDS011;66280;45.124;20.718;2024-02-21T03:43:25;16.17;;;7.47;;
77248;SDS011;66280;45.124;20.718;2024-02-21T03:53:26;13.33;;;7.27;;
77248;SDS011;66280;45.124;20.718;2024-02-21T04:03:28;14.17;;;8.53;;
77248;SDS011;66280;45.124;20.718;2024-02-21T04:13:29;14.53;;;8.30;;
77248;SDS011;66280;45.124;20.718;2024-02-21T04:23:30;18.92;;;9.75;;
77248;SDS011;66280;45.124;20.718;2024-02-21T04:33:32;15.00;;;9.10;;
77248;SDS011;66280;45.124;20.718;2024-02-21T04:43:33;15.07;;;9.43;;
77248;SDS011;66280;45.124;20.718;2024-02-21T04:53:35;14.57;;;8.17;;
77248;SDS011;66280;45.124;20.718;2024-02-21T05:03:36;17.53;;;10.87;;
77248;SDS011;66280;45.124;20.718;2024-02-21T05:13:37;16.45;;;8.95;;
77248;SDS011;66280;45.124;20.718;2024-02-21T05:23:39;16.40;;;8.87;;
77248;SDS011;66280;45.124;20.718;2024-02-21T05:33:40;12.47;;;7.73;;
77248;SDS011;66280;45.124;20.718;2024-02-21T05:43:42;11.50;;;6.97;;
77248;SDS011;66280;45.124;20.718;2024-02-21T05:53:43;14.37;;;7.13;;
77248;SDS011;66280;45.124;20.718;2024-02-21T06:03:45;29.20;;;12.60;;
77248;SDS011;66280;45.124;20.718;2024-02-21T06:13:46;15.40;;;7.87;;
77248;SDS011;66280;45.124;20.718;2024-02-21T06:23:48;10.33;;;7.47;;
77248;SDS011;66280;45.124;20.718;2024-02-21T06:33:49;9.37;;;5.63;;
77248;SDS011;66280;45.124;20.718;2024-02-21T06:43:51;8.77;;;5.90;;
77248;SDS011;66280;45.124;20.718;2024-02-21T06:53:52;8.60;;;5.45;;
77248;SDS011;66280;45.124;20.718;2024-02-21T07:03:54;9.83;;;5.10;;
77248;SDS011;66280;45.124;20.718;2024-02-21T07:13:55;11.63;;;6.20;;
77248;SDS011;66280;45.124;20.718;2024-02-21T07:23:57;19.40;;;7.43;;
77248;SDS011;66280;45.124;20.718;2024-02-21T07:33:58;9.50;;;4.37;;
77248;SDS011;66280;45.124;20.718;2024-02-21T07:44:00;8.23;;;3.97;;
77248;SDS011;66280;45.124;20.718;2024-02-21T07:54:01;7.00;;;3.73;;
77248;SDS011;66280;45.124;20.718;2024-02-21T08:04:05;9.07;;;4.27;;
77248;SDS011;66280;45.124;20.718;2024-02-21T08:14:06;10.10;;;7.70;;
77248;SDS011;66280;45.124;20.718;2024-02-21T08:24:08;72.37;;;45.50;;
77248;SDS011;66280;45.124;20.718;2024-02-21T08:34:09;9.95;;;6.40;;
77248;SDS011;66280;45.124;20.718;2024-02-21T08:44:10;8.70;;;5.00;;
77248;SDS011;66280;45.124;20.718;2024-02-21T08:54:12;7.07;;;4.10;;
77248;SDS011;66280;45.124;20.718;2024-02-21T09:04:13;7.65;;;4.30;;
77248;SDS011;66280;45.124;20.718;2024-02-21T09:14:15;7.30;;;4.80;;
77248;SDS011;66280;45.124;20.718;2024-02-21T09:24:18;5.60;;;3.17;;
77248;SDS011;66280;45.124;20.718;2024-02-21T09:34:20;10.07;;;4.87;;
77248;SDS011;66280;45.124;20.718;2024-02-21T09:44:22;12.17;;;4.80;;
77248;SDS011;66280;45.124;20.718;2024-02-21T09:54:27;7.37;;;4.17;;
77248;SDS011;66280;45.124;20.718;2024-02-21T10:04:29;5.30;;;3.50;;
77248;SDS011;66280;45.124;20.718;2024-02-21T10:14:31;6.93;;;3.92;;
77248;SDS011;66280;45.124;20.718;2024-02-21T10:24:32;5.97;;;2.73;;
77248;SDS011;66280;45.124;20.718;2024-02-21T10:34:35;8.27;;;5.97;;
77248;SDS011;66280;45.124;20.718;2024-02-21T10:44:37;6.93;;;3.50;;
77248;SDS011;66280;45.124;20.718;2024-02-21T10:54:56;10.40;;;5.70;;
77248;SDS011;66280;45.124;20.718;2024-02-21T11:05:02;7.60;;;4.43;;
77248;SDS011;66280;45.124;20.718;2024-02-21T11:15:07;8.37;;;4.47;;
77248;SDS011;66280;45.124;20.718;2024-02-21T11:25:09;7.30;;;4.07;;
77248;SDS011;66280;45.124;20.718;2024-02-21T11:35:20;8.03;;;5.63;;
77248;SDS011;66280;45.124;20.718;2024-02-21T11:45:21;8.63;;;4.70;;
77248;SDS011;66280;45.124;20.718;2024-02-21T11:55:27;6.90;;;3.58;;
77248;SDS011;66280;45.124;20.718;2024-02-21T12:05:29;7.40;;;4.23;;
77248;SDS011;66280;45.124;20.718;2024-02-21T12:15:31;6.83;;;4.00;;
77248;SDS011;66280;45.124;20.718;2024-02-21T12:25:33;4.67;;;2.83;;
77248;SDS011;66280;45.124;20.718;2024-02-21T12:35:34;6.13;;;3.27;;
77248;SDS011;66280;45.124;20.718;2024-02-21T12:45:36;3.67;;;2.97;;
77248;SDS011;66280;45.124;20.718;2024-02-21T12:55:37;7.20;;;3.87;;
77248;SDS011;66280;45.124;20.718;2024-02-21T13:05:39;14.27;;;7.77;;
77248;SDS011;66280;45.124;20.718;2024-02-21T13:15:41;4.43;;;3.67;;
77248;SDS011;66280;45.124;20.718;2024-02-21T13:25:44;4.40;;;2.40;;
77248;SDS011;66280;45.124;20.718;2024-02-21T13:35:46;6.72;;;2.85;;
77248;SDS011;66280;45.124;20.718;2024-02-21T13:45:57;5.03;;;2.30;;
77248;SDS011;66280;45.124;20.718;2024-02-21T13:56:00;9.13;;;2.73;;
77248;SDS011;66280;45.124;20.718;2024-02-21T14:06:02;4.77;;;2.83;;
77248;SDS011;66280;45.124;20.718;2024-02-21T14:16:08;7.57;;;3.90;;
77248;SDS011;66280;45.124;20.718;2024-02-21T14:26:12;7.78;;;3.30;;
77248;SDS011;66280;45.124;20.718;2024-02-21T14:36:15;7.80;;;1.60;;
77248;SDS011;66280;45.124;20.718;2024-02-21T14:46:16;4.27;;;2.53;;
77248;SDS011;66280;45.124;20.718;2024-02-21T14:56:18;8.90;;;2.40;;
77248;SDS011;66280;45.124;20.718;2024-02-21T15:06:19;2.27;;;1.67;;
77248;SDS011;66280;45.124;20.718;2024-02-21T15:16:22;6.13;;;3.10;;
77248;SDS011;66280;45.124;20.718;2024-02-21T15:26:23;11.53;;;5.27;;
77248;SDS011;66280;45.124;20.718;2024-02-21T15:36:25;28.63;;;17.93;;
77248;SDS011;66280;45.124;20.718;2024-02-21T15:46:29;14.37;;;6.30;;
77248;SDS011;66280;45.124;20.718;2024-02-21T15:56:32;47.37;;;19.77;;
77248;SDS011;66280;45.124;20.718;2024-02-21T16:06:33;22.92;;;10.77;;
77248;SDS011;66280;45.124;20.718;2024-02-21T16:16:35;25.17;;;12.20;;
77248;SDS011;66280;45.124;20.718;2024-02-21T16:26:37;48.67;;;20.83;;
77248;SDS011;66280;45.124;20.718;2024-02-21T16:36:39;272.67;;;117.90;;
77248;SDS011;66280;45.124;20.718;2024-02-21T16:46:40;276.53;;;116.37;;
77248;SDS011;66280;45.124;20.718;2024-02-21T16:56:41;357.55;;;165.93;;
77248;SDS011;66280;45.124;20.718;2024-02-21T17:06:43;214.30;;;92.23;;
77248;SDS011;66280;45.124;20.718;2024-02-21T17:16:45;197.27;;;88.00;;
77248;SDS011;66280;45.124;20.718;2024-02-21T17:26:46;337.43;;;153.80;;
77248;SDS011;66280;45.124;20.718;2024-02-21T17:36:48;234.40;;;110.37;;
77248;SDS011;66280;45.124;20.718;2024-02-21T17:46:49;329.90;;;151.02;;
77248;SDS011;66280;45.124;20.718;2024-02-21T17:56:52;251.93;;;111.60;;
77248;SDS011;66280;45.124;20.718;2024-02-21T18:06:53;446.37;;;188.90;;
77248;SDS011;66280;45.124;20.718;2024-02-21T18:16:57;184.97;;;85.13;;
77248;SDS011;66280;45.124;20.718;2024-02-21T18:26:59;134.33;;;56.97;;
77248;SDS011;66280;45.124;20.718;2024-02-21T18:37:01;95.97;;;41.53;;
77248;SDS011;66280;45.124;20.718;2024-02-21T18:47:05;198.17;;;71.63;;
77248;SDS011;66280;45.124;20.718;2024-02-21T18:57:06;116.50;;;45.47;;
77248;SDS011;66280;45.124;20.718;2024-02-21T19:07:08;173.03;;;52.53;;
77248;SDS011;66280;45.124;20.718;2024-02-21T19:17:09;93.93;;;31.43;;
77248;SDS011;66280;45.124;20.718;2024-02-21T19:27:11;138.68;;;48.20;;
77248;SDS011;66280;45.124;20.718;2024-02-21T19:37:13;57.97;;;25.33;;
77248;SDS011;66280;45.124;20.718;2024-02-21T19:47:14;28.73;;;13.93;;
77248;SDS011;66280;45.124;20.718;2024-02-21T19:57:16;67.10;;;25.50;;
77248;SDS011;66280;45.124;20.718;2024-02-21T20:07:17;26.43;;;13.53;;
77248;SDS011;66280;45.124;20.718;2024-02-21T20:17:20;18.20;;;10.13;;
77248;SDS011;66280;45.124;20.718;2024-02-21T20:27:23;33.60;;;15.20;;
77248;SDS011;66280;45.124;20.718;2024-02-21T20:37:24;24.50;;;9.97;;
77248;SDS011;66280;45.124;20.718;2024-02-21T20:47:26;35.37;;;16.70;;
77248;SDS011;66280;45.124;20.718;2024-02-21T20:57:27;45.10;;;21.00;;
77248;SDS011;66280;45.124;20.718;2024-02-21T21:07:28;19.35;;;11.40;;
77248;SDS011;66280;45.124;20.718;2024-02-21T21:17:30;23.47;;;12.23;;
77248;SDS011;66280;45.124;20.718;2024-02-21T21:27:32;59.33;;;25.33;;
77248;SDS011;66280;45.124;20.718;2024-02-21T21:37:33;118.53;;;33.43;;
77248;SDS011;66280;45.124;20.718;2024-02-21T21:47:35;30.87;;;13.70;;
77248;SDS011;66280;45.124;20.718;2024-02-21T21:57:37;22.30;;;10.98;;
77248;SDS011;66280;45.124;20.718;2024-02-21T22:07:39;14.27;;;8.20;;
77248;SDS011;66280;45.124;20.718;2024-02-21T22:17:40;18.73;;;9.83;;
77248;SDS011;66280;45.124;20.718;2024-02-21T22:27:41;25.17;;;13.17;;
77248;SDS011;66280;45.124;20.718;2024-02-21T22:37:43;32.77;;;13.80;;
77248;SDS011;66280;45.124;20.718;2024-02-21T22:47:45;25.00;;;12.45;;
77248;SDS011;66280;45.124;20.718;2024-02-21T22:57:48;20.30;;;9.80;;
77248;SDS011;66280;45.124;20.718;2024-02-21T23:07:49;22.60;;;11.13;;
77248;SDS011;66280;45.124;20.718;2024-02-21T23:17:53;28.77;;;14.47;;
77248;SDS011;66280;45.124;20.718;2024-02-21T23:27:54;24.77;;;12.90;;
77248;SDS011;66280;45.124;20.718;2024-02-21T23:37:57;30.27;;;14.07;;
77248;SDS011;66280;45.124;20.718;2024-02-21T23:47:58;20.83;;;10.83;;
77248;SDS011;66280;45.124;20.718;2024-02-21T23:58:00;23.57;;;12.17;;
